createdAt,value
2023-04-22T00:01:43.617Z,9.61
2023-04-22T00:05:06.470Z,9.60
2023-04-22T00:08:28.039Z,9.58
2023-04-22T00:11:50.008Z,9.52
2023-04-22T00:15:13.665Z,9.46
2023-04-22T00:18:36.509Z,9.41
2023-04-22T00:21:58.679Z,9.38
2023-04-22T00:25:20.624Z,9.33
2023-04-22T00:28:41.990Z,9.29
2023-04-22T00:32:06.264Z,9.26
2023-04-22T00:35:28.155Z,9.24
2023-04-22T00:38:51.806Z,9.18
2023-04-22T00:42:15.173Z,9.14
2023-04-22T00:45:38.413Z,9.09
2023-04-22T00:49:02.363Z,9.01
2023-04-22T00:52:24.391Z,8.97
2023-04-22T00:55:46.443Z,8.94
2023-04-22T00:59:10.850Z,8.91
2023-04-22T01:02:32.712Z,8.87
2023-04-22T01:05:56.034Z,8.85
2023-04-22T01:09:19.750Z,8.83
2023-04-22T01:12:41.790Z,8.81
2023-04-22T01:16:03.932Z,8.79
2023-04-22T01:19:25.611Z,8.76
2023-04-22T01:22:51.815Z,8.72
2023-04-22T01:26:14.833Z,8.69
2023-04-22T01:29:37.768Z,8.64
2023-04-22T01:33:00.142Z,8.60
2023-04-22T01:36:24.292Z,8.54
2023-04-22T01:39:46.296Z,8.50
2023-04-22T01:43:09.541Z,8.47
2023-04-22T01:46:31.506Z,8.45
2023-04-22T01:49:53.303Z,8.41
2023-04-22T01:53:15.014Z,8.40
2023-04-22T01:56:36.815Z,8.39
2023-04-22T01:59:59.858Z,8.38
2023-04-22T02:03:21.871Z,8.38
2023-04-22T02:06:43.504Z,8.36
2023-04-22T02:10:06.356Z,8.35
2023-04-22T02:13:28.487Z,8.35
2023-04-22T02:16:51.810Z,8.37
2023-04-22T02:20:14.509Z,8.42
2023-04-22T02:23:37.488Z,8.46
2023-04-22T02:27:00.354Z,8.50
2023-04-22T02:30:22.999Z,8.56
2023-04-22T02:33:46.296Z,8.65
2023-04-22T02:37:09.802Z,8.72
2023-04-22T02:40:31.694Z,8.76
2023-04-22T02:43:53.392Z,8.80
2023-04-22T02:47:17.246Z,8.87
2023-04-22T02:50:40.616Z,8.91
2023-04-22T02:54:05.071Z,8.93
2023-04-22T02:57:27.019Z,8.93
2023-04-22T03:00:48.583Z,8.94
2023-04-22T03:04:12.268Z,9.02
2023-04-22T03:07:35.720Z,9.04
2023-04-22T03:10:57.970Z,9.07
2023-04-22T03:14:19.650Z,9.10
2023-04-22T03:17:41.389Z,9.09
2023-04-22T03:21:07.466Z,9.11
2023-04-22T03:24:30.771Z,9.12
2023-04-22T03:27:57.531Z,9.17
2023-04-22T03:31:19.901Z,9.19
2023-04-22T03:34:42.454Z,9.18
2023-04-22T03:38:05.194Z,9.19
2023-04-22T03:41:31.072Z,9.20
2023-04-22T03:44:53.616Z,9.17
2023-04-22T03:48:20.061Z,9.17
2023-04-22T03:51:46.254Z,9.17
2023-04-22T03:55:12.697Z,9.18
2023-04-22T03:58:37.179Z,9.16
2023-04-22T04:02:02.311Z,9.15
2023-04-22T04:05:24.799Z,9.10
2023-04-22T04:08:47.614Z,9.04
2023-04-22T04:12:10.247Z,9.01
2023-04-22T04:15:39.197Z,8.94
2023-04-22T04:19:02.319Z,8.87
2023-04-22T04:22:25.017Z,8.80
2023-04-22T04:25:52.661Z,8.74
2023-04-22T04:29:14.904Z,8.70
2023-04-22T04:32:45.843Z,8.70
2023-04-22T04:36:10.834Z,8.74
2023-04-22T04:39:33.714Z,8.76
2023-04-22T04:42:57.526Z,8.80
2023-04-22T04:46:24.158Z,8.86
2023-04-22T04:49:50.217Z,8.95
2023-04-22T04:53:12.226Z,9.02
2023-04-22T04:56:36.949Z,9.07
2023-04-22T04:59:59.193Z,9.14
2023-04-22T05:03:22.107Z,9.18
2023-04-22T05:06:45.867Z,9.24
2023-04-22T05:10:10.231Z,9.31
2023-04-22T05:13:33.196Z,9.36
2023-04-22T05:16:55.079Z,9.40
2023-04-22T05:20:17.315Z,9.43
2023-04-22T05:23:41.360Z,9.49
2023-04-22T05:27:03.045Z,9.52
2023-04-22T05:30:26.780Z,9.52
2023-04-22T05:33:48.133Z,9.59
2023-04-22T05:37:13.507Z,9.60
2023-04-22T06:00:53.808Z,10.03
2023-04-22T06:04:36.501Z,10.12
2023-04-22T06:07:59.944Z,10.20
2023-04-22T06:11:22.138Z,10.27
2023-04-22T06:14:43.647Z,10.31
2023-04-22T06:18:07.025Z,10.35
2023-04-22T06:21:28.753Z,10.40
2023-04-22T06:24:51.392Z,10.48
2023-04-22T06:28:13.363Z,10.53
2023-04-22T06:31:35.476Z,10.62
2023-04-22T06:34:59.021Z,10.63
2023-04-22T06:38:21.109Z,10.74
2023-04-22T06:42:18.056Z,10.85
2023-04-22T06:46:02.475Z,10.97
2023-04-22T06:49:56.260Z,11.05
2023-04-22T06:53:31.328Z,11.15
2023-04-22T06:56:53.024Z,11.22
2023-04-22T07:00:15.992Z,11.32
2023-04-22T07:03:37.640Z,11.40
2023-04-22T07:07:04.074Z,11.50
2023-04-22T07:10:27.501Z,11.57
2023-04-22T07:14:07.747Z,11.68
2023-04-22T07:17:31.622Z,11.79
2023-04-22T07:33:26.638Z,12.30
2023-04-22T07:36:48.667Z,12.40
2023-04-22T07:40:14.049Z,12.50
2023-04-22T07:43:35.814Z,12.62
2023-04-22T07:46:57.850Z,12.69
2023-04-22T07:50:21.105Z,12.81
2023-04-22T07:53:43.048Z,12.92
2023-04-22T07:57:04.974Z,13.01
2023-04-22T08:00:26.583Z,13.15
2023-04-22T08:03:49.233Z,13.24
2023-04-22T08:07:30.998Z,13.37
2023-04-22T08:10:54.214Z,13.48
2023-04-22T08:14:15.509Z,13.59
2023-04-22T08:17:37.535Z,13.72
2023-04-22T08:20:59.504Z,13.83
2023-04-22T08:24:22.627Z,13.94
2023-04-22T08:27:44.121Z,14.04
2023-04-22T08:31:06.626Z,14.18
2023-04-22T08:34:28.937Z,14.31
2023-04-22T08:37:50.301Z,14.40
2023-04-22T08:49:06.690Z,14.81
2023-04-22T08:52:28.310Z,14.92
2023-04-22T08:55:51.197Z,15.03
2023-04-22T08:59:14.101Z,15.17
2023-04-22T09:02:38.154Z,15.28
2023-04-22T09:06:04.819Z,15.38
2023-04-22T09:09:26.770Z,15.52
2023-04-22T09:12:50.235Z,15.65
2023-04-22T09:16:11.847Z,15.75
2023-04-22T09:19:33.688Z,15.85
2023-04-22T09:30:40.207Z,16.14
2023-04-22T09:34:02.606Z,16.24
2023-04-22T09:37:33.228Z,16.39
2023-04-22T09:41:10.417Z,16.53
2023-04-22T09:44:35.266Z,16.61
2023-04-22T09:48:02.194Z,16.72
2023-04-22T09:51:24.851Z,16.84
2023-04-22T09:54:51.832Z,16.96
2023-04-22T09:58:15.213Z,17.06
2023-04-22T10:01:40.029Z,17.16
2023-04-22T10:05:04.031Z,17.26
2023-04-22T10:08:25.878Z,17.35
2023-04-22T10:11:48.740Z,17.44
2023-04-22T10:15:11.573Z,17.54
2023-04-22T10:18:34.314Z,17.65
2023-04-22T10:21:59.450Z,17.78
2023-04-22T10:25:23.476Z,17.87
2023-04-22T10:28:45.559Z,17.99
2023-04-22T10:32:10.784Z,18.08
2023-04-22T10:35:32.982Z,18.20
2023-04-22T10:39:19.013Z,18.28
2023-04-22T10:42:42.084Z,18.33
2023-04-22T10:46:03.568Z,18.41
2023-04-22T10:49:26.563Z,18.52
2023-04-22T10:52:50.661Z,18.60
2023-04-22T10:56:19.430Z,18.71
2023-04-22T10:59:44.277Z,18.82
2023-04-22T11:03:29.108Z,18.88
2023-04-22T11:07:16.109Z,18.98
2023-04-22T11:10:44.128Z,19.06
2023-04-22T11:14:10.266Z,19.13
2023-04-22T11:21:17.470Z,19.24
2023-04-22T11:24:39.597Z,19.29
2023-04-22T11:28:01.487Z,19.36
2023-04-22T11:31:24.794Z,19.43
2023-04-22T11:34:46.459Z,19.50
2023-04-22T11:38:08.781Z,19.58
2023-04-22T11:41:31.338Z,19.58
2023-04-22T11:44:53.157Z,19.61
2023-04-22T11:48:16.987Z,19.67
2023-04-22T11:51:38.537Z,19.74
2023-04-22T11:55:01.594Z,19.79
2023-04-22T11:58:27.153Z,19.83
2023-04-22T12:01:48.791Z,19.87
2023-04-22T12:05:13.414Z,19.93
2023-04-22T12:08:36.973Z,20.03
2023-04-22T12:11:58.644Z,20.10
2023-04-22T12:15:20.158Z,20.19
2023-04-22T12:18:48.953Z,20.23
2023-04-22T12:22:11.989Z,20.27
2023-04-22T12:25:35.296Z,20.31
2023-04-22T12:28:58.153Z,20.36
2023-04-22T12:32:19.681Z,20.41
2023-04-22T12:35:41.664Z,20.43
2023-04-22T12:39:04.826Z,20.47
2023-04-22T12:42:26.255Z,20.52
2023-04-22T12:45:48.327Z,20.56
2023-04-22T12:49:11.514Z,20.62
2023-04-22T12:52:34.771Z,20.67
2023-04-22T12:55:58.186Z,20.76
2023-04-22T12:59:20.914Z,20.85
2023-04-22T13:02:43.623Z,20.91
2023-04-22T13:06:05.746Z,20.93
2023-04-22T13:09:27.651Z,20.90
2023-04-22T13:12:50.794Z,20.92
2023-04-22T13:16:12.800Z,20.96
2023-04-22T13:19:35.382Z,20.96
2023-04-22T13:22:57.059Z,21.03
2023-04-22T13:26:19.069Z,21.08
2023-04-22T13:29:43.130Z,21.14
2023-04-22T13:33:04.692Z,21.18
2023-04-22T13:36:27.888Z,21.22
2023-04-22T13:39:49.698Z,21.25
2023-04-22T13:43:11.484Z,21.31
2023-04-22T13:46:34.609Z,21.36
2023-04-22T13:49:56.135Z,21.45
2023-04-22T13:53:17.932Z,21.48
2023-04-22T13:56:39.956Z,21.53
2023-04-22T14:00:01.790Z,21.62
2023-04-22T14:03:34.915Z,21.63
2023-04-22T14:06:56.985Z,21.71
2023-04-22T14:10:20.344Z,21.79
2023-04-22T14:13:42.593Z,21.86
2023-04-22T14:17:04.235Z,21.83
2023-04-22T14:20:27.446Z,21.91
2023-04-22T14:23:49.549Z,21.95
2023-04-22T14:27:12.435Z,21.97
2023-04-22T14:30:34.014Z,22.02
2023-04-22T14:33:55.964Z,22.08
2023-04-22T14:37:19.425Z,22.12
2023-04-22T14:40:41.002Z,22.17
2023-04-22T14:44:02.810Z,22.24
2023-04-22T14:47:24.495Z,22.34
2023-04-22T14:50:45.900Z,22.68
2023-04-22T14:54:09.130Z,24.03
2023-04-22T14:57:30.904Z,25.19
2023-04-22T15:00:52.218Z,25.93
2023-04-22T15:04:14.977Z,26.46
2023-04-22T15:07:36.560Z,26.85
2023-04-22T15:11:00.095Z,26.80
2023-04-22T15:14:22.071Z,26.86
2023-04-22T15:17:44.453Z,26.75
2023-04-22T15:21:10.310Z,26.24
2023-04-22T15:24:32.254Z,25.64
2023-04-22T15:27:56.620Z,25.14
2023-04-22T15:31:18.546Z,24.74
2023-04-22T15:34:40.253Z,24.44
2023-04-22T15:38:03.030Z,24.21
2023-04-22T15:41:25.303Z,24.05
2023-04-22T15:44:48.030Z,23.92
2023-04-22T15:48:10.896Z,23.79
2023-04-22T15:51:32.593Z,23.66
2023-04-22T15:54:54.524Z,23.58
2023-04-22T15:58:18.982Z,23.45
2023-04-22T16:01:43.767Z,23.44
2023-04-22T16:05:07.400Z,23.39
2023-04-22T16:08:28.966Z,23.39
2023-04-22T16:11:50.301Z,23.40
2023-04-22T16:15:12.333Z,23.40
2023-04-22T16:18:35.828Z,23.39
2023-04-22T16:21:57.208Z,23.19
2023-04-22T16:25:19.539Z,23.24
2023-04-22T16:28:41.404Z,23.27
2023-04-22T16:32:03.694Z,23.27
2023-04-22T16:35:27.287Z,23.25
2023-04-22T16:38:49.164Z,23.20
2023-04-22T16:42:10.530Z,23.18
2023-04-22T16:45:32.286Z,23.14
2023-04-22T16:48:54.140Z,23.08
2023-04-22T16:52:17.337Z,23.03
2023-04-22T16:55:39.465Z,22.98
2023-04-22T16:59:01.406Z,22.92
2023-04-22T17:02:22.949Z,22.87
2023-04-22T17:05:44.491Z,22.84
2023-04-22T17:09:08.750Z,22.76
2023-04-22T17:12:30.939Z,22.68
2023-04-22T17:15:52.710Z,22.60
2023-04-22T17:19:14.777Z,22.47
2023-04-22T17:22:36.850Z,22.40
2023-04-22T17:26:00.442Z,22.30
2023-04-22T17:29:23.204Z,22.17
2023-04-22T17:32:45.265Z,22.05
2023-04-22T17:36:07.756Z,21.95
2023-04-22T17:39:29.237Z,21.86
2023-04-22T17:42:52.212Z,21.73
2023-04-22T17:46:13.900Z,21.59
2023-04-22T17:49:35.220Z,21.43
2023-04-22T17:52:57.133Z,21.26
2023-04-22T17:56:18.793Z,21.11
2023-04-22T17:59:41.620Z,20.94
2023-04-22T18:03:05.388Z,20.78
2023-04-22T18:06:28.971Z,20.61
2023-04-22T18:09:50.789Z,20.47
2023-04-22T18:13:12.459Z,20.29
2023-04-22T18:16:35.675Z,20.12
2023-04-22T18:20:09.873Z,19.92
2023-04-22T18:23:38.606Z,19.70
2023-04-22T18:27:00.908Z,19.52
2023-04-22T18:30:22.700Z,19.34
2023-04-22T18:33:45.747Z,19.16
2023-04-22T18:37:07.602Z,19.00
2023-04-22T18:40:29.121Z,18.85
2023-04-22T18:43:50.998Z,18.65
2023-04-22T18:47:12.455Z,18.50
2023-04-22T18:50:35.233Z,18.34
2023-04-22T18:53:57.212Z,18.21
2023-04-22T18:57:18.928Z,18.05
2023-04-22T19:00:40.955Z,17.88
2023-04-22T19:04:02.722Z,17.73
2023-04-22T19:07:25.893Z,17.60
2023-04-22T19:10:47.801Z,17.47
2023-04-22T19:14:09.513Z,17.33
2023-04-22T19:17:31.392Z,17.20
2023-04-22T19:20:52.817Z,17.07
2023-04-22T19:24:16.155Z,16.94
2023-04-22T19:27:38.153Z,16.82
2023-04-22T19:31:00.977Z,16.70
2023-04-22T19:34:22.284Z,16.59
2023-04-22T19:37:45.649Z,16.49
2023-04-22T19:41:09.364Z,16.39
2023-04-22T19:44:31.057Z,16.28
2023-04-22T19:47:53.261Z,16.17
2023-04-22T19:51:15.485Z,16.06
2023-04-22T19:54:37.757Z,15.99
2023-04-22T19:58:01.327Z,15.90
2023-04-22T20:01:23.217Z,15.82
2023-04-22T20:04:45.779Z,15.74
2023-04-22T20:08:09.000Z,15.66
2023-04-22T20:11:31.128Z,15.58
2023-04-22T20:14:54.697Z,15.52
2023-04-22T20:18:16.771Z,15.43
2023-04-22T20:21:40.410Z,15.37
2023-04-22T20:25:04.134Z,15.31
2023-04-22T20:28:43.544Z,15.24
2023-04-22T20:32:07.246Z,15.17
2023-04-22T20:35:29.949Z,15.13
2023-04-22T20:38:54.784Z,15.07
2023-04-22T20:42:16.700Z,15.01
2023-04-22T20:45:38.397Z,14.96
2023-04-22T20:49:01.864Z,14.90
2023-04-22T20:52:23.594Z,14.84
2023-04-22T20:55:45.397Z,14.79
2023-04-22T20:59:07.498Z,14.74
2023-04-22T21:02:30.690Z,14.67
2023-04-22T21:05:54.418Z,14.60
2023-04-22T21:09:17.085Z,14.54
2023-04-22T21:12:39.471Z,14.48
2023-04-22T21:16:03.548Z,14.42
2023-04-22T21:19:25.975Z,14.36
2023-04-22T21:22:49.398Z,14.31
2023-04-22T21:26:11.861Z,14.26
2023-04-22T21:29:34.541Z,14.21
2023-04-22T21:32:55.884Z,14.15
2023-04-22T21:36:17.795Z,14.10
2023-04-22T21:39:41.945Z,14.04
2023-04-22T21:43:04.634Z,14.00
2023-04-22T21:46:26.525Z,13.94
2023-04-22T21:49:48.415Z,13.88
2023-04-22T21:53:11.140Z,13.84
2023-04-22T21:56:35.987Z,13.79
2023-04-22T21:59:57.837Z,13.74
2023-04-22T22:03:19.443Z,13.70
2023-04-22T22:06:41.190Z,13.68
2023-04-22T22:10:03.460Z,13.62
2023-04-22T22:13:27.044Z,13.57
2023-04-22T22:16:49.941Z,13.53
2023-04-22T22:20:14.297Z,13.49
2023-04-22T22:23:35.729Z,13.43
2023-04-22T22:26:57.977Z,13.41
2023-04-22T22:30:21.972Z,13.37
2023-04-22T22:33:43.475Z,13.35
2023-04-22T22:37:05.563Z,13.34
2023-04-22T22:40:27.189Z,13.32
2023-04-22T22:43:49.051Z,13.31
2023-04-22T22:47:12.580Z,13.30
2023-04-22T22:50:34.246Z,13.31
2023-04-22T22:53:56.102Z,13.30
2023-04-22T22:57:17.801Z,13.30
2023-04-22T23:00:39.167Z,13.31
2023-04-22T23:04:02.598Z,13.30
2023-04-22T23:07:24.401Z,13.31
2023-04-22T23:10:45.794Z,13.32
2023-04-22T23:14:09.645Z,13.35
2023-04-22T23:17:31.461Z,13.35
2023-04-22T23:20:55.516Z,13.34
2023-04-22T23:24:17.788Z,13.33
2023-04-22T23:27:40.603Z,13.31
2023-04-22T23:31:04.224Z,13.32
2023-04-22T23:34:26.124Z,13.33
2023-04-22T23:37:52.914Z,13.34
2023-04-22T23:41:14.735Z,13.35
2023-04-22T23:44:36.287Z,13.34
2023-04-22T23:47:57.676Z,13.33
2023-04-22T23:51:19.455Z,13.32
2023-04-22T23:54:44.693Z,13.28
2023-04-22T23:58:06.614Z,13.28
